createdAt,value
2024-01-09T00:01:33.082Z,93355.91
2024-01-09T00:04:01.090Z,93360.31
2024-01-09T00:06:29.226Z,93365.75
2024-01-09T00:09:00.049Z,93364.56
2024-01-09T00:11:28.405Z,93368.63
2024-01-09T00:13:59.248Z,93375.50
2024-01-09T00:16:27.319Z,93371.34
2024-01-09T00:18:55.937Z,93382.41
2024-01-09T00:21:24.896Z,93382.19
2024-01-09T00:23:52.945Z,93383.88
2024-01-09T00:26:22.912Z,93382.88
2024-01-09T00:28:51.101Z,93385.16
2024-01-09T00:31:19.235Z,93396.22
2024-01-09T00:33:47.450Z,93385.75
2024-01-09T00:36:15.529Z,93390.34
2024-01-09T00:38:43.701Z,93403.47
2024-01-09T00:41:11.802Z,93395.72
2024-01-09T00:43:39.842Z,93401.44
2024-01-09T00:46:07.921Z,93409.91
2024-01-09T00:48:36.493Z,93409.78
2024-01-09T00:51:04.886Z,93404.16
2024-01-09T00:53:32.964Z,93412.75
2024-01-09T00:56:00.977Z,93401.06
2024-01-09T00:58:29.902Z,93409.63
2024-01-09T01:00:57.899Z,93412.84
2024-01-09T01:03:26.121Z,93423.94
2024-01-09T01:05:54.091Z,93421.66
2024-01-09T01:08:22.790Z,93420.66
2024-01-09T01:10:50.781Z,93420.44
2024-01-09T01:13:18.709Z,93422.22
2024-01-09T01:15:46.823Z,93419.03
2024-01-09T01:18:15.188Z,93422.63
2024-01-09T01:20:43.473Z,93421.47
2024-01-09T01:23:11.499Z,93414.78
2024-01-09T01:25:39.796Z,93415.91
2024-01-09T01:28:07.947Z,93418.88
2024-01-09T01:30:36.070Z,93423.50
2024-01-09T01:33:04.901Z,93425.31
2024-01-09T01:35:33.181Z,93419.78
2024-01-09T01:38:01.230Z,93419.50
2024-01-09T01:40:29.379Z,93420.97
2024-01-09T01:42:58.648Z,93421.94
2024-01-09T01:45:26.917Z,93420.88
2024-01-09T01:47:55.441Z,93424.78
2024-01-09T01:50:24.281Z,93432.69
2024-01-09T01:52:53.105Z,93434.91
2024-01-09T01:55:26.620Z,93432.00
2024-01-09T01:57:58.198Z,93439.19
2024-01-09T02:00:27.769Z,93430.47
2024-01-09T02:02:56.289Z,93444.41
2024-01-09T02:05:27.353Z,93436.19
2024-01-09T02:07:57.693Z,93441.47
2024-01-09T02:10:25.832Z,93435.25
2024-01-09T02:12:54.252Z,93432.69
2024-01-09T02:15:22.300Z,93433.72
2024-01-09T02:17:50.722Z,93437.53
2024-01-09T02:20:23.696Z,93442.16
2024-01-09T02:22:51.853Z,93449.66
2024-01-09T02:25:20.263Z,93438.50
2024-01-09T02:28:07.612Z,93452.16
2024-01-09T02:30:37.406Z,93442.22
2024-01-09T02:33:07.808Z,93449.66
2024-01-09T02:35:36.121Z,93455.31
2024-01-09T02:38:04.387Z,93448.66
2024-01-09T02:40:32.751Z,93447.41
2024-01-09T02:43:00.756Z,93450.06
2024-01-09T02:45:28.781Z,93454.16
2024-01-09T02:47:57.335Z,93452.16
2024-01-09T02:50:25.488Z,93441.13
2024-01-09T02:52:54.912Z,93451.78
2024-01-09T02:55:22.894Z,93450.28
2024-01-09T02:57:51.820Z,93454.50
2024-01-09T03:02:59.180Z,93456.56
2024-01-09T03:05:27.685Z,93451.94
2024-01-09T03:07:55.935Z,93456.69
2024-01-09T03:10:26.027Z,93452.16
2024-01-09T03:12:53.972Z,93453.72
2024-01-09T03:15:22.131Z,93462.50
2024-01-09T03:17:50.292Z,93463.81
2024-01-09T03:20:18.576Z,93462.75
2024-01-09T03:22:46.568Z,93462.81
2024-01-09T03:25:14.564Z,93456.50
2024-01-09T03:27:42.589Z,93467.69
2024-01-09T03:30:11.280Z,93470.34
2024-01-09T03:32:39.271Z,93466.41
2024-01-09T03:35:07.925Z,93470.69
2024-01-09T03:37:35.888Z,93471.03
2024-01-09T03:40:03.874Z,93470.41
2024-01-09T03:42:31.925Z,93472.50
2024-01-09T03:44:59.941Z,93469.88
2024-01-09T03:47:28.043Z,93477.19
2024-01-09T03:49:56.119Z,93481.41
2024-01-09T03:52:24.527Z,93489.59
2024-01-09T03:54:52.690Z,93486.06
2024-01-09T03:57:20.638Z,93498.66
2024-01-09T03:59:48.782Z,93500.38
2024-01-09T04:02:17.341Z,93505.81
2024-01-09T04:04:45.419Z,93508.91
2024-01-09T04:07:13.474Z,93517.22
2024-01-09T04:09:41.527Z,93512.78
2024-01-09T04:12:09.610Z,93518.72
2024-01-09T04:14:37.986Z,93502.50
2024-01-09T04:17:06.157Z,93519.13
2024-01-09T04:19:38.312Z,93520.38
2024-01-09T04:22:09.579Z,93514.94
2024-01-09T04:24:37.725Z,93518.69
2024-01-09T04:27:05.921Z,93526.94
2024-01-09T04:29:34.127Z,93522.91
2024-01-09T04:32:02.148Z,93528.47
2024-01-09T04:34:30.323Z,93532.28
2024-01-09T04:36:58.593Z,93535.75
2024-01-09T04:39:26.712Z,93544.38
2024-01-09T04:41:55.026Z,93550.94
2024-01-09T04:44:23.522Z,93548.81
2024-01-09T04:46:51.804Z,93557.88
2024-01-09T04:49:19.956Z,93570.19
2024-01-09T04:51:48.050Z,93570.13
2024-01-09T04:54:16.194Z,93569.59
2024-01-09T04:56:44.603Z,93566.59
2024-01-09T04:59:12.630Z,93551.09
2024-01-09T05:01:40.638Z,93525.50
2024-01-09T05:04:10.327Z,93531.59
2024-01-09T05:06:38.834Z,93527.66
2024-01-09T05:09:06.770Z,93526.03
2024-01-09T05:11:34.930Z,93543.50
2024-01-09T05:14:03.031Z,93550.25
2024-01-09T05:16:31.173Z,93560.72
2024-01-09T05:18:59.243Z,93550.06
2024-01-09T05:21:27.574Z,93561.22
2024-01-09T05:23:55.682Z,93571.16
2024-01-09T05:26:24.062Z,93571.38
2024-01-09T05:28:52.040Z,93570.22
2024-01-09T05:31:20.329Z,93576.91
2024-01-09T05:33:49.179Z,93576.16
2024-01-09T05:36:24.033Z,93575.78
2024-01-09T05:38:52.965Z,93573.78
2024-01-09T05:41:22.618Z,93579.41
2024-01-09T05:43:51.371Z,93587.44
2024-01-09T05:46:19.384Z,93590.78
2024-01-09T05:48:48.325Z,93603.47
2024-01-09T05:51:16.659Z,93612.06
2024-01-09T05:53:47.659Z,93617.91
2024-01-09T05:56:16.056Z,93636.72
2024-01-09T05:58:44.264Z,93633.31
2024-01-09T06:01:12.725Z,93639.94
2024-01-09T06:03:40.863Z,93651.31
2024-01-09T06:06:09.089Z,93662.84
2024-01-09T06:08:37.137Z,93667.31
2024-01-09T06:11:05.677Z,93669.84
2024-01-09T06:13:33.681Z,93680.28
2024-01-09T06:16:01.782Z,93693.81
2024-01-09T06:18:29.890Z,93712.09
2024-01-09T06:20:58.078Z,93713.19
2024-01-09T06:23:26.181Z,93718.03
2024-01-09T06:25:54.154Z,93735.97
2024-01-09T06:28:22.271Z,93738.84
2024-01-09T06:30:50.436Z,93736.31
2024-01-09T06:33:18.597Z,93732.88
2024-01-09T06:35:46.702Z,93737.09
2024-01-09T06:38:15.542Z,93736.31
2024-01-09T06:40:43.581Z,93753.84
2024-01-09T06:43:11.727Z,93751.78
2024-01-09T06:45:39.638Z,93752.25
2024-01-09T06:48:08.033Z,93755.84
2024-01-09T06:50:38.293Z,93760.00
2024-01-09T06:53:06.619Z,93768.13
2024-01-09T06:55:34.854Z,93776.56
2024-01-09T06:58:05.760Z,93773.84
2024-01-09T07:00:35.750Z,93779.53
2024-01-09T07:03:04.214Z,93779.34
2024-01-09T07:05:32.317Z,93790.66
2024-01-09T07:08:00.438Z,93793.28
2024-01-09T07:10:28.867Z,93794.19
2024-01-09T07:12:58.034Z,93805.09
2024-01-09T07:15:26.234Z,93808.72
2024-01-09T07:17:54.552Z,93820.03
2024-01-09T07:20:22.610Z,93805.91
2024-01-09T07:22:58.670Z,93805.31
2024-01-09T07:25:30.885Z,93805.66
2024-01-09T07:27:58.771Z,93804.19
2024-01-09T07:30:27.147Z,93816.28
2024-01-09T07:32:55.519Z,93815.72
2024-01-09T07:35:23.957Z,93812.22
2024-01-09T07:37:51.939Z,93821.56
2024-01-09T07:40:20.400Z,93830.78
2024-01-09T07:42:56.919Z,93834.38
2024-01-09T07:45:32.065Z,93839.50
2024-01-09T07:48:01.486Z,93839.97
2024-01-09T07:50:29.771Z,93837.41
2024-01-09T07:52:57.982Z,93840.84
2024-01-09T07:55:26.772Z,93836.72
2024-01-09T07:57:54.916Z,93839.72
2024-01-09T08:00:23.074Z,93842.91
2024-01-09T08:02:51.123Z,93844.03
2024-01-09T08:05:19.577Z,93844.25
2024-01-09T08:07:47.662Z,93852.59
2024-01-09T08:10:16.322Z,93856.47
2024-01-09T08:12:44.662Z,93854.66
2024-01-09T08:15:13.024Z,93861.78
2024-01-09T08:17:41.637Z,93863.28
2024-01-09T08:20:10.549Z,93862.00
2024-01-09T08:22:39.061Z,93872.91
2024-01-09T08:25:07.899Z,93888.63
2024-01-09T08:27:36.291Z,93887.22
2024-01-09T08:30:05.596Z,93890.75
2024-01-09T08:32:33.769Z,93892.50
2024-01-09T08:35:03.107Z,93882.25
2024-01-09T08:37:31.214Z,93890.63
2024-01-09T08:39:59.699Z,93885.81
2024-01-09T08:42:27.666Z,93886.09
2024-01-09T08:44:55.942Z,93879.53
2024-01-09T08:47:24.068Z,93876.25
2024-01-09T08:49:52.908Z,93878.88
2024-01-09T08:52:26.436Z,93876.44
2024-01-09T08:54:55.338Z,93875.97
2024-01-09T08:57:23.842Z,93883.88
2024-01-09T08:59:51.937Z,93887.47
2024-01-09T09:02:20.076Z,93900.78
2024-01-09T09:04:48.300Z,93895.16
2024-01-09T09:07:17.182Z,93893.50
2024-01-09T09:09:45.726Z,93896.00
2024-01-09T09:12:15.357Z,93897.13
2024-01-09T09:14:43.398Z,93899.03
2024-01-09T09:17:13.879Z,93898.03
2024-01-09T09:19:42.118Z,93901.41
2024-01-09T09:22:10.262Z,93909.09
2024-01-09T09:24:38.469Z,93909.41
2024-01-09T09:27:06.534Z,93903.09
2024-01-09T09:29:38.131Z,93903.09
2024-01-09T09:32:07.780Z,93891.75
2024-01-09T09:34:36.294Z,93905.06
2024-01-09T09:37:04.797Z,93890.56
2024-01-09T09:39:32.883Z,93898.03
2024-01-09T09:42:01.268Z,93887.28
2024-01-09T09:44:29.803Z,93887.41
2024-01-09T09:47:00.460Z,93890.88
2024-01-09T09:49:29.794Z,93892.44
2024-01-09T09:51:59.616Z,93888.22
2024-01-09T09:54:27.680Z,93890.31
2024-01-09T09:56:55.787Z,93880.28
2024-01-09T09:59:23.974Z,93878.09
2024-01-09T10:01:53.505Z,93871.53
2024-01-09T10:04:36.857Z,93873.66
2024-01-09T10:07:07.842Z,93879.78
2024-01-09T10:09:39.343Z,93881.28
2024-01-09T10:12:07.958Z,93882.31
2024-01-09T10:14:36.020Z,93880.75
2024-01-09T10:17:06.867Z,93872.19
2024-01-09T10:19:35.123Z,93877.34
2024-01-09T10:22:03.949Z,93881.03
2024-01-09T10:24:38.347Z,93873.25
2024-01-09T10:27:09.722Z,93878.94
2024-01-09T10:29:44.071Z,93883.03
2024-01-09T10:32:15.638Z,93880.84
2024-01-09T10:34:45.280Z,93871.13
2024-01-09T10:37:15.249Z,93894.66
2024-01-09T10:39:48.057Z,93890.03
2024-01-09T10:42:16.384Z,93886.75
2024-01-09T10:44:47.908Z,93892.72
2024-01-09T10:47:17.738Z,93898.41
2024-01-09T10:49:46.968Z,93903.47
2024-01-09T10:52:16.962Z,93907.66
2024-01-09T10:54:46.322Z,93910.38
2024-01-09T10:57:15.316Z,93914.81
2024-01-09T10:59:45.806Z,93921.44
2024-01-09T11:02:17.321Z,93916.03
2024-01-09T11:04:46.217Z,93918.53
2024-01-09T11:07:18.116Z,93915.41
2024-01-09T11:09:48.755Z,93917.53
2024-01-09T11:12:24.639Z,93917.66
2024-01-09T11:15:12.984Z,93921.78
2024-01-09T11:17:43.403Z,93931.44
2024-01-09T11:20:15.839Z,93944.84
2024-01-09T11:22:44.182Z,93952.63
2024-01-09T11:25:18.650Z,93954.25
2024-01-09T11:27:51.590Z,93960.69
2024-01-09T11:30:24.395Z,93961.44
2024-01-09T11:32:53.357Z,93967.00
2024-01-09T11:35:24.876Z,93969.63
2024-01-09T11:37:53.473Z,93974.72
2024-01-09T11:40:25.926Z,93965.41
2024-01-09T11:42:54.408Z,93982.44
2024-01-09T11:45:24.334Z,93980.00
2024-01-09T11:47:55.314Z,93986.00
2024-01-09T11:50:23.920Z,94000.09
2024-01-09T11:52:52.309Z,94001.47
2024-01-09T11:55:20.417Z,94021.78
2024-01-09T11:57:48.575Z,94014.78
2024-01-09T12:00:17.204Z,94017.84
2024-01-09T12:02:45.644Z,94014.59
2024-01-09T12:05:13.830Z,94018.84
2024-01-09T12:07:42.016Z,94028.34
2024-01-09T12:10:21.604Z,94027.16
2024-01-09T12:13:06.416Z,94043.16
2024-01-09T12:15:34.692Z,94045.59
2024-01-09T12:18:04.061Z,94039.19
2024-01-09T12:20:33.489Z,94045.13
2024-01-09T12:23:02.898Z,94048.38
2024-01-09T12:25:31.746Z,94054.91
2024-01-09T12:28:01.306Z,94052.41
2024-01-09T12:30:29.948Z,94057.94
2024-01-09T12:32:58.938Z,94058.63
2024-01-09T12:35:27.173Z,94061.59
2024-01-09T12:37:55.474Z,94064.22
2024-01-09T12:40:23.646Z,94069.47
2024-01-09T12:43:12.613Z,94069.63
2024-01-09T12:45:41.493Z,94072.50
2024-01-09T12:48:11.076Z,94066.19
2024-01-09T12:50:39.615Z,94077.13
2024-01-09T12:53:09.227Z,94078.72
2024-01-09T12:55:37.543Z,94082.53
2024-01-09T12:58:05.610Z,94075.19
2024-01-09T13:00:33.949Z,94081.38
2024-01-09T13:03:02.157Z,94087.41
2024-01-09T13:05:30.418Z,94080.22
2024-01-09T13:07:58.677Z,94085.44
2024-01-09T13:10:27.031Z,94087.38
2024-01-09T13:12:55.109Z,94085.50
2024-01-09T13:15:23.319Z,94081.09
2024-01-09T13:17:51.431Z,94086.34
2024-01-09T13:20:19.612Z,94087.06
2024-01-09T13:25:18.790Z,94096.34
2024-01-09T13:27:47.247Z,94101.59
2024-01-09T13:32:46.489Z,94106.13
2024-01-09T13:35:14.644Z,94105.50
2024-01-09T13:37:45.333Z,94110.06
2024-01-09T13:40:13.624Z,94122.25
2024-01-09T13:42:42.447Z,94128.63
2024-01-09T13:45:11.099Z,94129.22
2024-01-09T13:47:42.910Z,94125.75
2024-01-09T13:51:47.134Z,94136.59
2024-01-09T13:53:00.706Z,94135.59
2024-01-09T13:55:29.172Z,94137.38
2024-01-09T13:57:57.199Z,94138.84
2024-01-09T14:00:25.469Z,94149.72
2024-01-09T14:02:55.190Z,94142.91
2024-01-09T14:05:25.545Z,94148.44
2024-01-09T14:07:53.685Z,94147.16
2024-01-09T14:10:23.536Z,94148.81
2024-01-09T14:12:52.583Z,94150.25
2024-01-09T14:15:20.722Z,94153.75
2024-01-09T14:17:49.377Z,94160.88
2024-01-09T14:20:18.240Z,94167.16
2024-01-09T14:22:47.010Z,94168.09
2024-01-09T14:25:15.515Z,94173.06
2024-01-09T14:27:43.656Z,94170.72
2024-01-09T14:30:12.309Z,94175.53
2024-01-09T14:32:41.577Z,94180.19
2024-01-09T14:35:10.402Z,94177.03
2024-01-09T14:37:40.432Z,94181.13
2024-01-09T14:40:13.230Z,94183.28
2024-01-09T14:42:41.493Z,94183.22
2024-01-09T14:45:12.020Z,94178.22
2024-01-09T14:47:40.854Z,94179.84
2024-01-09T14:50:09.538Z,94186.59
2024-01-09T14:52:37.705Z,94183.16
2024-01-09T14:55:06.945Z,94185.09
2024-01-09T14:57:35.200Z,94187.56
2024-01-09T15:00:06.157Z,94187.94
2024-01-09T15:02:34.548Z,94187.94
2024-01-09T15:05:03.323Z,94189.44
2024-01-09T15:07:31.677Z,94194.50
2024-01-09T15:09:59.800Z,94185.03
2024-01-09T15:12:31.238Z,94200.47
2024-01-09T15:14:59.780Z,94200.94
2024-01-09T15:17:30.834Z,94198.34
2024-01-09T15:19:59.420Z,94204.56
2024-01-09T15:22:27.732Z,94211.66
2024-01-09T15:24:56.444Z,94213.38
2024-01-09T15:27:25.826Z,94220.69
2024-01-09T15:29:55.516Z,94229.56
2024-01-09T15:32:24.297Z,94225.31
2024-01-09T15:34:54.014Z,94233.69
2024-01-09T15:37:23.618Z,94219.81
2024-01-09T15:39:51.718Z,94227.50
2024-01-09T15:42:20.959Z,94235.31
2024-01-09T15:44:50.456Z,94236.06
2024-01-09T15:47:18.952Z,94229.88
2024-01-09T15:49:48.281Z,94231.06
2024-01-09T15:52:17.508Z,94240.28
2024-01-09T15:54:46.072Z,94239.19
2024-01-09T15:57:15.032Z,94237.47
2024-01-09T15:59:44.369Z,94242.91
2024-01-09T16:02:13.173Z,94242.44
2024-01-09T16:04:43.858Z,94244.25
2024-01-09T16:07:13.481Z,94247.84
2024-01-09T16:09:43.284Z,94252.53
2024-01-09T16:12:11.262Z,94249.94
2024-01-09T16:14:40.797Z,94240.97
2024-01-09T16:17:09.788Z,94250.53
2024-01-09T16:19:38.598Z,94252.75
2024-01-09T16:22:08.955Z,94263.34
2024-01-09T16:24:38.452Z,94269.72
2024-01-09T16:27:07.584Z,94260.47
2024-01-09T16:29:36.292Z,94267.34
2024-01-09T16:32:05.917Z,94266.66
2024-01-09T16:34:35.100Z,94263.25
2024-01-09T16:37:03.966Z,94277.09
2024-01-09T16:39:32.892Z,94273.81
2024-01-09T16:42:01.786Z,94275.13
2024-01-09T16:44:30.434Z,94284.28
2024-01-09T16:47:00.344Z,94281.84
2024-01-09T16:49:29.729Z,94285.59
2024-01-09T16:51:58.578Z,94298.34
2024-01-09T16:54:27.186Z,94287.41
2024-01-09T16:56:55.817Z,94294.19
2024-01-09T16:59:25.494Z,94298.13
2024-01-09T17:01:55.114Z,94313.47
2024-01-09T17:04:24.030Z,94302.59
2024-01-09T17:06:53.484Z,94303.56
2024-01-09T17:09:22.323Z,94308.38
2024-01-09T17:11:51.126Z,94309.06
2024-01-09T17:14:19.901Z,94312.38
2024-01-09T17:16:51.419Z,94316.44
2024-01-09T17:19:25.712Z,94314.72
2024-01-09T17:21:54.149Z,94322.16
2024-01-09T17:24:23.113Z,94318.16
2024-01-09T17:26:51.684Z,94326.50
2024-01-09T17:29:21.248Z,94329.63
2024-01-09T17:31:50.004Z,94322.81
2024-01-09T17:34:19.158Z,94325.75
2024-01-09T17:36:49.339Z,94325.31
2024-01-09T17:39:19.719Z,94327.88
2024-01-09T17:41:48.605Z,94330.16
2024-01-09T17:44:17.295Z,94338.88
2024-01-09T17:46:45.959Z,94335.66
2024-01-09T17:49:15.480Z,94343.66
2024-01-09T17:51:43.999Z,94350.63
2024-01-09T17:54:12.987Z,94343.31
2024-01-09T17:56:41.848Z,94349.66
2024-01-09T17:59:10.900Z,94350.97
2024-01-09T18:01:46.364Z,94360.19
2024-01-09T18:04:21.149Z,94366.53
2024-01-09T18:06:50.762Z,94357.22
2024-01-09T18:09:27.437Z,94362.59
2024-01-09T18:11:56.814Z,94370.59
2024-01-09T18:14:25.515Z,94363.03
2024-01-09T18:16:54.161Z,94368.56
2024-01-09T18:19:22.715Z,94381.94
2024-01-09T18:21:51.643Z,94387.63
2024-01-09T18:24:20.463Z,94379.47
2024-01-09T18:26:54.020Z,94386.16
2024-01-09T18:29:24.837Z,94387.88
2024-01-09T18:31:56.542Z,94383.91
2024-01-09T18:34:25.464Z,94386.81
2024-01-09T18:36:54.106Z,94388.19
2024-01-09T18:39:23.470Z,94386.75
2024-01-09T18:41:59.414Z,94398.75
2024-01-09T18:44:30.059Z,94390.06
2024-01-09T18:46:59.036Z,94400.31
2024-01-09T18:49:28.082Z,94398.81
2024-01-09T18:51:57.166Z,94402.91
2024-01-09T18:54:26.288Z,94397.44
2024-01-09T18:56:54.965Z,94405.94
2024-01-09T18:59:23.782Z,94411.53
2024-01-09T19:01:53.042Z,94410.53
2024-01-09T19:04:21.926Z,94411.22
2024-01-09T19:06:50.747Z,94405.06
2024-01-09T19:09:19.346Z,94418.34
2024-01-09T19:11:47.988Z,94420.81
2024-01-09T19:14:19.482Z,94415.13
2024-01-09T19:16:48.613Z,94424.69
2024-01-09T19:19:18.243Z,94412.53
2024-01-09T19:21:47.481Z,94406.75
2024-01-09T19:24:18.526Z,94414.25
2024-01-09T19:26:48.301Z,94408.19
2024-01-09T19:29:20.743Z,94411.09
2024-01-09T19:31:51.403Z,94413.25
2024-01-09T19:34:21.446Z,94414.59
2024-01-09T19:36:50.283Z,94413.16
2024-01-09T19:39:19.088Z,94419.28
2024-01-09T19:41:47.699Z,94416.94
2024-01-09T19:44:17.753Z,94417.44
2024-01-09T19:46:46.543Z,94417.91
2024-01-09T19:49:15.713Z,94416.00
2024-01-09T19:51:44.800Z,94416.03
2024-01-09T19:54:13.854Z,94421.13
2024-01-09T19:56:42.777Z,94422.63
2024-01-09T19:59:12.196Z,94421.16
2024-01-09T20:01:45.268Z,94416.06
2024-01-09T20:04:14.141Z,94427.97
2024-01-09T20:06:43.457Z,94428.34
2024-01-09T20:09:12.775Z,94436.03
2024-01-09T20:11:41.627Z,94426.78
2024-01-09T20:14:10.405Z,94434.16
2024-01-09T20:16:39.554Z,94434.91
2024-01-09T20:19:08.293Z,94440.63
2024-01-09T20:21:41.339Z,94443.84
2024-01-09T20:24:10.168Z,94441.22
2024-01-09T20:26:39.903Z,94450.69
2024-01-09T20:29:12.418Z,94445.19
2024-01-09T20:31:46.189Z,94457.25
2024-01-09T20:34:15.752Z,94446.31
2024-01-09T20:36:44.852Z,94444.78
2024-01-09T20:39:19.483Z,94452.03
2024-01-09T20:41:48.232Z,94457.50
2024-01-09T20:44:21.644Z,94450.69
2024-01-09T20:46:50.352Z,94450.03
2024-01-09T20:49:18.882Z,94450.97
2024-01-09T20:51:47.541Z,94456.28
2024-01-09T20:54:16.145Z,94458.41
2024-01-09T20:56:44.705Z,94458.53
2024-01-09T20:59:13.439Z,94450.53
2024-01-09T21:01:42.563Z,94457.34
2024-01-09T21:04:13.942Z,94453.22
2024-01-09T21:06:47.543Z,94452.81
2024-01-09T21:09:16.198Z,94452.66
2024-01-09T21:11:44.568Z,94455.38
2024-01-09T21:14:13.209Z,94457.34
2024-01-09T21:16:41.886Z,94456.22
2024-01-09T21:19:10.432Z,94454.72
2024-01-09T21:21:38.997Z,94461.00
2024-01-09T21:24:07.997Z,94461.94
2024-01-09T21:26:36.628Z,94465.47
2024-01-09T21:29:05.356Z,94459.84
2024-01-09T21:31:34.110Z,94462.13
2024-01-09T21:34:03.093Z,94460.84
2024-01-09T21:36:31.714Z,94466.25
2024-01-09T21:39:00.483Z,94457.59
2024-01-09T21:41:29.053Z,94462.94
2024-01-09T21:43:57.544Z,94461.47
2024-01-09T21:46:27.732Z,94467.59
2024-01-09T21:48:56.587Z,94459.75
2024-01-09T21:51:27.223Z,94465.19
2024-01-09T21:53:58.470Z,94462.34
2024-01-09T21:56:26.902Z,94471.78
2024-01-09T21:58:55.138Z,94474.91
2024-01-09T22:01:23.849Z,94469.09
2024-01-09T22:03:52.487Z,94478.03
2024-01-09T22:06:21.402Z,94472.94
2024-01-09T22:08:50.104Z,94467.66
2024-01-09T22:11:18.863Z,94458.47
2024-01-09T22:13:48.647Z,94460.91
2024-01-09T22:16:20.771Z,94463.78
2024-01-09T22:18:49.713Z,94454.69
2024-01-09T22:21:18.670Z,94452.47
2024-01-09T22:23:46.964Z,94460.03
2024-01-09T22:26:22.396Z,94461.78
2024-01-09T22:28:50.800Z,94452.81
2024-01-09T22:31:19.981Z,94456.44
2024-01-09T22:33:48.645Z,94457.47
2024-01-09T22:36:16.874Z,94461.25
2024-01-09T22:38:44.902Z,94448.19
2024-01-09T22:41:12.979Z,94447.84
2024-01-09T22:43:41.103Z,94446.44
2024-01-09T22:46:09.200Z,94446.09
2024-01-09T22:48:37.225Z,94446.22
2024-01-09T22:51:06.571Z,94448.38
2024-01-09T22:53:34.593Z,94452.75
2024-01-09T22:56:02.862Z,94450.69
2024-01-09T22:58:31.021Z,94452.25
2024-01-09T23:00:59.766Z,94453.34
2024-01-09T23:03:28.318Z,94448.38
2024-01-09T23:05:59.048Z,94439.44
2024-01-09T23:08:27.275Z,94447.47
2024-01-09T23:10:55.328Z,94446.34
2024-01-09T23:13:23.624Z,94436.09
2024-01-09T23:15:51.663Z,94440.91
2024-01-09T23:18:19.647Z,94442.13
2024-01-09T23:20:47.743Z,94443.75
2024-01-09T23:23:15.987Z,94446.34
2024-01-09T23:25:44.049Z,94446.91
2024-01-09T23:28:12.167Z,94442.84
2024-01-09T23:30:40.146Z,94436.91
2024-01-09T23:33:08.473Z,94435.47
2024-01-09T23:35:36.612Z,94440.31
2024-01-09T23:38:05.692Z,94445.59
2024-01-09T23:40:35.101Z,94445.47
2024-01-09T23:43:03.398Z,94433.00
2024-01-09T23:45:31.509Z,94438.38
2024-01-09T23:47:59.584Z,94442.75
2024-01-09T23:50:27.789Z,94437.97
2024-01-09T23:52:56.132Z,94446.47
2024-01-09T23:55:24.256Z,94443.72
2024-01-09T23:57:52.765Z,94439.03
